sensor_id;sensor_type;location;lat;lon;timestamp;pressure;altitude;pressure_sealevel;temperature;humidity
34034;BME280;63481;52.588;22.472;2022-12-18T00:00:41;101557.98;;;-9.44;94.85
34034;BME280;63481;52.588;22.472;2022-12-18T00:01:36;101551.27;;;-9.50;94.80
34034;BME280;63481;52.588;22.472;2022-12-18T00:02:27;101558.42;;;-9.45;94.80
34034;BME280;63481;52.588;22.472;2022-12-18T00:03:18;101563.50;;;-9.42;94.77
34034;BME280;63481;52.588;22.472;2022-12-18T00:04:15;101560.16;;;-9.45;94.74
34034;BME280;63481;52.588;22.472;2022-12-18T00:05:03;101567.88;;;-9.44;94.69
34034;BME280;63481;52.588;22.472;2022-12-18T00:05:54;101564.78;;;-9.42;94.64
34034;BME280;63481;52.588;22.472;2022-12-18T00:06:47;101565.29;;;-9.44;94.61
34034;BME280;63481;52.588;22.472;2022-12-18T00:07:37;101565.91;;;-9.50;94.55
34034;BME280;63481;52.588;22.472;2022-12-18T00:08:28;101562.45;;;-9.49;94.50
34034;BME280;63481;52.588;22.472;2022-12-18T00:09:20;101572.72;;;-9.48;94.47
34034;BME280;63481;52.588;22.472;2022-12-18T00:10:10;101570.39;;;-9.42;94.45
34034;BME280;63481;52.588;22.472;2022-12-18T00:11:07;101565.29;;;-9.44;94.41
34034;BME280;63481;52.588;22.472;2022-12-18T00:11:58;101563.73;;;-9.49;94.36
34034;BME280;63481;52.588;22.472;2022-12-18T00:12:48;101569.17;;;-9.58;94.30
34034;BME280;63481;52.588;22.472;2022-12-18T00:13:38;101570.29;;;-9.52;94.28
34034;BME280;63481;52.588;22.472;2022-12-18T00:14:29;101573.11;;;-9.60;94.26
34034;BME280;63481;52.588;22.472;2022-12-18T00:15:20;101568.92;;;-9.64;94.24
34034;BME280;63481;52.588;22.472;2022-12-18T00:16:13;101571.94;;;-9.64;94.19
34034;BME280;63481;52.588;22.472;2022-12-18T00:17:05;101570.86;;;-9.71;94.17
34034;BME280;63481;52.588;22.472;2022-12-18T00:17:56;101571.30;;;-9.71;94.16
34034;BME280;63481;52.588;22.472;2022-12-18T00:18:52;101578.69;;;-9.74;94.15
34034;BME280;63481;52.588;22.472;2022-12-18T00:19:43;101576.80;;;-9.83;94.12
34034;BME280;63481;52.588;22.472;2022-12-18T00:20:39;101579.01;;;-9.84;94.13
34034;BME280;63481;52.588;22.472;2022-12-18T00:21:30;101582.87;;;-9.84;94.11
34034;BME280;63481;52.588;22.472;2022-12-18T00:22:22;101580.03;;;-9.90;94.12
34034;BME280;63481;52.588;22.472;2022-12-18T00:23:12;101583.76;;;-9.85;94.13
34034;BME280;63481;52.588;22.472;2022-12-18T00:24:06;101585.05;;;-9.85;94.13
34034;BME280;63481;52.588;22.472;2022-12-18T00:24:57;101578.30;;;-9.89;94.11
34034;BME280;63481;52.588;22.472;2022-12-18T00:25:47;101580.88;;;-9.89;94.10
34034;BME280;63481;52.588;22.472;2022-12-18T00:26:38;101579.27;;;-9.93;94.09
34034;BME280;63481;52.588;22.472;2022-12-18T00:27:29;101579.49;;;-10.01;94.07
34034;BME280;63481;52.588;22.472;2022-12-18T00:28:19;101590.66;;;-10.00;94.09
34034;BME280;63481;52.588;22.472;2022-12-18T00:29:12;101586.06;;;-9.91;94.08
34034;BME280;63481;52.588;22.472;2022-12-18T00:30:08;101587.27;;;-9.88;94.10
34034;BME280;63481;52.588;22.472;2022-12-18T00:31:07;101587.44;;;-9.94;94.10
34034;BME280;63481;52.588;22.472;2022-12-18T00:31:58;101583.36;;;-10.01;94.08
34034;BME280;63481;52.588;22.472;2022-12-18T00:32:48;101587.53;;;-9.97;94.08
34034;BME280;63481;52.588;22.472;2022-12-18T00:33:38;101589.81;;;-10.01;94.07
34034;BME280;63481;52.588;22.472;2022-12-18T00:34:31;101589.37;;;-10.00;94.08
34034;BME280;63481;52.588;22.472;2022-12-18T00:35:22;101593.05;;;-9.94;94.08
34034;BME280;63481;52.588;22.472;2022-12-18T00:36:15;101588.95;;;-10.01;94.08
34034;BME280;63481;52.588;22.472;2022-12-18T00:37:07;101598.40;;;-10.00;94.07
34034;BME280;63481;52.588;22.472;2022-12-18T00:37:58;101596.64;;;-10.00;94.09
34034;BME280;63481;52.588;22.472;2022-12-18T00:38:48;101597.77;;;-9.94;94.09
34034;BME280;63481;52.588;22.472;2022-12-18T00:39:41;101603.25;;;-9.90;94.10
34034;BME280;63481;52.588;22.472;2022-12-18T00:40:32;101604.81;;;-9.84;94.12
34034;BME280;63481;52.588;22.472;2022-12-18T00:41:23;101601.30;;;-9.82;94.09
34034;BME280;63481;52.588;22.472;2022-12-18T00:42:32;101599.91;;;-9.79;94.09
34034;BME280;63481;52.588;22.472;2022-12-18T00:43:42;101601.06;;;-9.74;94.04
34034;BME280;63481;52.588;22.472;2022-12-18T00:44:32;101607.66;;;-9.79;93.98
34034;BME280;63481;52.588;22.472;2022-12-18T00:45:25;101606.54;;;-9.85;93.92
34034;BME280;63481;52.588;22.472;2022-12-18T00:46:16;101610.55;;;-9.89;93.88
34034;BME280;63481;52.588;22.472;2022-12-18T00:47:06;101607.50;;;-9.89;93.86
34034;BME280;63481;52.588;22.472;2022-12-18T00:47:59;101619.20;;;-9.92;93.86
34034;BME280;63481;52.588;22.472;2022-12-18T00:48:49;101614.45;;;-9.91;93.83
34034;BME280;63481;52.588;22.472;2022-12-18T00:49:40;101616.53;;;-9.89;93.84
34034;BME280;63481;52.588;22.472;2022-12-18T00:50:30;101621.25;;;-9.88;93.83
34034;BME280;63481;52.588;22.472;2022-12-18T00:51:20;101622.89;;;-9.86;93.82
34034;BME280;63481;52.588;22.472;2022-12-18T00:52:12;101632.36;;;-9.86;93.82
34034;BME280;63481;52.588;22.472;2022-12-18T00:53:02;101627.32;;;-9.89;93.78
34034;BME280;63481;52.588;22.472;2022-12-18T00:53:53;101631.36;;;-9.95;93.76
34034;BME280;63481;52.588;22.472;2022-12-18T00:54:44;101627.43;;;-9.94;93.75
34034;BME280;63481;52.588;22.472;2022-12-18T00:55:34;101625.12;;;-10.03;93.74
34034;BME280;63481;52.588;22.472;2022-12-18T00:56:25;101633.25;;;-10.02;93.73
34034;BME280;63481;52.588;22.472;2022-12-18T00:57:16;101624.80;;;-10.07;93.74
34034;BME280;63481;52.588;22.472;2022-12-18T00:58:06;101626.58;;;-10.09;93.75
34034;BME280;63481;52.588;22.472;2022-12-18T00:58:59;101620.52;;;-10.08;93.75
34034;BME280;63481;52.588;22.472;2022-12-18T00:59:49;101628.25;;;-10.08;93.78
34034;BME280;63481;52.588;22.472;2022-12-18T01:00:42;101623.02;;;-10.05;93.80
34034;BME280;63481;52.588;22.472;2022-12-18T01:01:34;101619.20;;;-10.06;93.82
34034;BME280;63481;52.588;22.472;2022-12-18T01:02:25;101615.27;;;-10.05;93.84
34034;BME280;63481;52.588;22.472;2022-12-18T01:03:16;101610.67;;;-10.08;93.86
34034;BME280;63481;52.588;22.472;2022-12-18T01:04:07;101613.19;;;-10.07;93.86
34034;BME280;63481;52.588;22.472;2022-12-18T01:04:57;101616.98;;;-10.04;93.88
34034;BME280;63481;52.588;22.472;2022-12-18T01:05:48;101619.97;;;-10.03;93.88
34034;BME280;63481;52.588;22.472;2022-12-18T01:06:38;101618.27;;;-10.04;93.90
34034;BME280;63481;52.588;22.472;2022-12-18T01:07:29;101619.86;;;-10.00;93.89
34034;BME280;63481;52.588;22.472;2022-12-18T01:08:19;101621.62;;;-10.00;93.91
34034;BME280;63481;52.588;22.472;2022-12-18T01:09:09;101621.14;;;-10.00;93.88
34034;BME280;63481;52.588;22.472;2022-12-18T01:10:00;101623.73;;;-10.00;93.88
34034;BME280;63481;52.588;22.472;2022-12-18T01:10:50;101619.48;;;-10.01;93.89
34034;BME280;63481;52.588;22.472;2022-12-18T01:11:40;101626.86;;;-10.03;93.88
34034;BME280;63481;52.588;22.472;2022-12-18T01:12:30;101623.42;;;-10.04;93.88
34034;BME280;63481;52.588;22.472;2022-12-18T01:13:21;101623.78;;;-10.01;93.88
34034;BME280;63481;52.588;22.472;2022-12-18T01:14:13;101624.22;;;-10.02;93.86
34034;BME280;63481;52.588;22.472;2022-12-18T01:15:06;101624.99;;;-9.98;93.87
34034;BME280;63481;52.588;22.472;2022-12-18T01:15:56;101628.14;;;-9.89;93.87
34034;BME280;63481;52.588;22.472;2022-12-18T01:16:47;101627.87;;;-9.94;93.84
34034;BME280;63481;52.588;22.472;2022-12-18T01:17:37;101628.50;;;-10.01;93.81
34034;BME280;63481;52.588;22.472;2022-12-18T01:18:28;101628.86;;;-9.98;93.80
34034;BME280;63481;52.588;22.472;2022-12-18T01:19:18;101629.22;;;-9.96;93.77
34034;BME280;63481;52.588;22.472;2022-12-18T01:20:12;101637.09;;;-10.00;93.76
34034;BME280;63481;52.588;22.472;2022-12-18T01:21:11;101632.04;;;-10.05;93.74
34034;BME280;63481;52.588;22.472;2022-12-18T01:22:02;101635.83;;;-10.02;93.70
34034;BME280;63481;52.588;22.472;2022-12-18T01:22:52;101635.45;;;-10.03;93.69
34034;BME280;63481;52.588;22.472;2022-12-18T01:23:44;101642.85;;;-10.07;93.65
34034;BME280;63481;52.588;22.472;2022-12-18T01:24:35;101639.55;;;-10.12;93.64
34034;BME280;63481;52.588;22.472;2022-12-18T01:25:28;101642.14;;;-10.12;93.62
34034;BME280;63481;52.588;22.472;2022-12-18T01:26:18;101642.61;;;-10.12;93.61
34034;BME280;63481;52.588;22.472;2022-12-18T01:27:09;101645.62;;;-10.13;93.58
34034;BME280;63481;52.588;22.472;2022-12-18T01:27:59;101642.55;;;-10.11;93.57
34034;BME280;63481;52.588;22.472;2022-12-18T01:28:49;101643.42;;;-10.12;93.57
34034;BME280;63481;52.588;22.472;2022-12-18T01:29:40;101629.23;;;-10.26;93.49
34034;BME280;63481;52.588;22.472;2022-12-18T01:30:30;101642.05;;;-10.23;93.53
34034;BME280;63481;52.588;22.472;2022-12-18T01:31:24;101642.98;;;-10.26;93.51
34034;BME280;63481;52.588;22.472;2022-12-18T01:32:14;101644.25;;;-10.24;93.53
34034;BME280;63481;52.588;22.472;2022-12-18T01:33:05;101642.47;;;-10.22;93.52
34034;BME280;63481;52.588;22.472;2022-12-18T01:33:56;101643.83;;;-10.25;93.51
34034;BME280;63481;52.588;22.472;2022-12-18T01:34:47;101645.04;;;-10.22;93.49
34034;BME280;63481;52.588;22.472;2022-12-18T01:35:42;101644.19;;;-10.23;93.51
34034;BME280;63481;52.588;22.472;2022-12-18T01:36:37;101646.36;;;-10.24;93.50
34034;BME280;63481;52.588;22.472;2022-12-18T01:37:29;101650.35;;;-10.28;93.50
34034;BME280;63481;52.588;22.472;2022-12-18T01:38:19;101643.49;;;-10.30;93.49
34034;BME280;63481;52.588;22.472;2022-12-18T01:39:11;101642.82;;;-10.20;93.51
34034;BME280;63481;52.588;22.472;2022-12-18T01:40:05;101647.82;;;-10.14;93.53
34034;BME280;63481;52.588;22.472;2022-12-18T01:41:00;101649.57;;;-10.16;93.53
34034;BME280;63481;52.588;22.472;2022-12-18T01:41:51;101653.30;;;-10.26;93.50
34034;BME280;63481;52.588;22.472;2022-12-18T01:42:54;101652.00;;;-10.26;93.49
34034;BME280;63481;52.588;22.472;2022-12-18T01:43:50;101658.50;;;-10.27;93.48
34034;BME280;63481;52.588;22.472;2022-12-18T01:45:45;101656.72;;;-10.25;93.49
34034;BME280;63481;52.588;22.472;2022-12-18T01:46:37;101661.83;;;-10.24;93.50
34034;BME280;63481;52.588;22.472;2022-12-18T01:48:40;101676.73;;;-10.04;93.51
34034;BME280;63481;52.588;22.472;2022-12-18T01:49:31;101675.30;;;-9.98;93.48
34034;BME280;63481;52.588;22.472;2022-12-18T01:50:33;101674.03;;;-10.00;93.43
34034;BME280;63481;52.588;22.472;2022-12-18T01:51:24;101679.59;;;-9.99;93.38
34034;BME280;63481;52.588;22.472;2022-12-18T01:52:17;101676.19;;;-10.14;93.31
34034;BME280;63481;52.588;22.472;2022-12-18T01:53:17;101680.58;;;-10.17;93.26
34034;BME280;63481;52.588;22.472;2022-12-18T01:54:08;101677.50;;;-10.15;93.25
34034;BME280;63481;52.588;22.472;2022-12-18T01:55:00;101677.75;;;-10.10;93.25
34034;BME280;63481;52.588;22.472;2022-12-18T01:55:56;101685.33;;;-10.04;93.23
34034;BME280;63481;52.588;22.472;2022-12-18T01:56:48;101682.28;;;-10.16;93.20
34034;BME280;63481;52.588;22.472;2022-12-18T01:57:42;101678.59;;;-10.24;93.16
34034;BME280;63481;52.588;22.472;2022-12-18T01:59:33;101684.08;;;-10.20;93.17
34034;BME280;63481;52.588;22.472;2022-12-18T02:00:26;101683.88;;;-10.12;93.19
34034;BME280;63481;52.588;22.472;2022-12-18T02:01:17;101686.50;;;-10.14;93.19
34034;BME280;63481;52.588;22.472;2022-12-18T02:02:09;101686.66;;;-10.20;93.18
34034;BME280;63481;52.588;22.472;2022-12-18T02:02:59;101690.55;;;-10.21;93.16
34034;BME280;63481;52.588;22.472;2022-12-18T02:03:51;101696.71;;;-10.27;93.14
34034;BME280;63481;52.588;22.472;2022-12-18T02:04:42;101701.56;;;-10.31;93.13
34034;BME280;63481;52.588;22.472;2022-12-18T02:05:40;101700.39;;;-10.36;93.11
34034;BME280;63481;52.588;22.472;2022-12-18T02:06:34;101705.58;;;-10.37;93.09
34034;BME280;63481;52.588;22.472;2022-12-18T02:07:42;101702.61;;;-10.38;93.11
34034;BME280;63481;52.588;22.472;2022-12-18T02:09:02;101708.56;;;-10.36;93.10
34034;BME280;63481;52.588;22.472;2022-12-18T02:10:00;101705.27;;;-10.41;93.12
34034;BME280;63481;52.588;22.472;2022-12-18T02:12:07;101710.73;;;-10.37;93.15
34034;BME280;63481;52.588;22.472;2022-12-18T02:13:21;101713.29;;;-10.36;93.16
34034;BME280;63481;52.588;22.472;2022-12-18T02:14:23;101717.91;;;-10.32;93.17
34034;BME280;63481;52.588;22.472;2022-12-18T02:15:17;101716.38;;;-10.39;93.13
34034;BME280;63481;52.588;22.472;2022-12-18T02:16:29;101715.67;;;-10.46;93.10
34034;BME280;63481;52.588;22.472;2022-12-18T02:17:33;101721.31;;;-10.48;93.08
34034;BME280;63481;52.588;22.472;2022-12-18T02:18:26;101723.40;;;-10.46;93.07
34034;BME280;63481;52.588;22.472;2022-12-18T02:19:37;101724.33;;;-10.48;93.08
34034;BME280;63481;52.588;22.472;2022-12-18T02:20:35;101723.88;;;-10.46;93.07
34034;BME280;63481;52.588;22.472;2022-12-18T02:21:44;101722.45;;;-10.42;93.08
34034;BME280;63481;52.588;22.472;2022-12-18T02:23:04;101726.25;;;-10.39;93.06
34034;BME280;63481;52.588;22.472;2022-12-18T02:24:45;101725.52;;;-10.44;93.04
34034;BME280;63481;52.588;22.472;2022-12-18T02:25:13;101721.82;;;-10.51;92.99
34034;BME280;63481;52.588;22.472;2022-12-18T02:26:27;101730.16;;;-10.58;92.94
34034;BME280;63481;52.588;22.472;2022-12-18T02:27:18;101728.09;;;-10.61;92.91
34034;BME280;63481;52.588;22.472;2022-12-18T02:28:13;101729.30;;;-10.58;92.91
34034;BME280;63481;52.588;22.472;2022-12-18T02:29:16;101725.37;;;-10.55;92.90
34034;BME280;63481;52.588;22.472;2022-12-18T02:30:03;101731.38;;;-10.55;92.90
34034;BME280;63481;52.588;22.472;2022-12-18T02:30:59;101738.74;;;-10.57;92.86
34034;BME280;63481;52.588;22.472;2022-12-18T02:31:53;101741.69;;;-10.55;92.84
34034;BME280;63481;52.588;22.472;2022-12-18T02:32:47;101745.98;;;-10.55;92.82
34034;BME280;63481;52.588;22.472;2022-12-18T02:33:40;101752.36;;;-10.52;92.83
34034;BME280;63481;52.588;22.472;2022-12-18T02:34:34;101748.15;;;-10.56;92.81
34034;BME280;63481;52.588;22.472;2022-12-18T02:35:29;101746.84;;;-10.55;92.78
34034;BME280;63481;52.588;22.472;2022-12-18T02:36:22;101758.39;;;-10.53;92.79
34034;BME280;63481;52.588;22.472;2022-12-18T02:37:16;101750.52;;;-10.47;92.77
34034;BME280;63481;52.588;22.472;2022-12-18T02:38:07;101745.61;;;-10.40;92.73
34034;BME280;63481;52.588;22.472;2022-12-18T02:38:59;101749.09;;;-10.41;92.68
34034;BME280;63481;52.588;22.472;2022-12-18T02:39:51;101751.20;;;-10.41;92.61
34034;BME280;63481;52.588;22.472;2022-12-18T02:40:44;101755.55;;;-10.43;92.58
34034;BME280;63481;52.588;22.472;2022-12-18T02:41:37;101749.89;;;-10.39;92.54
34034;BME280;63481;52.588;22.472;2022-12-18T02:42:28;101751.95;;;-10.36;92.50
34034;BME280;63481;52.588;22.472;2022-12-18T02:43:21;101756.19;;;-10.33;92.47
34034;BME280;63481;52.588;22.472;2022-12-18T02:44:12;101758.28;;;-10.31;92.43
34034;BME280;63481;52.588;22.472;2022-12-18T02:45:03;101761.78;;;-10.34;92.38
34034;BME280;63481;52.588;22.472;2022-12-18T02:45:57;101765.86;;;-10.43;92.35
34034;BME280;63481;52.588;22.472;2022-12-18T02:46:53;101765.48;;;-10.44;92.34
34034;BME280;63481;52.588;22.472;2022-12-18T02:47:46;101760.95;;;-10.52;92.32
34034;BME280;63481;52.588;22.472;2022-12-18T02:48:37;101765.98;;;-10.47;92.34
34034;BME280;63481;52.588;22.472;2022-12-18T02:49:36;101762.63;;;-10.51;92.35
34034;BME280;63481;52.588;22.472;2022-12-18T02:50:34;101764.33;;;-10.50;92.37
34034;BME280;63481;52.588;22.472;2022-12-18T02:51:32;101773.00;;;-10.54;92.37
34034;BME280;63481;52.588;22.472;2022-12-18T02:52:42;101771.88;;;-10.60;92.38
34034;BME280;63481;52.588;22.472;2022-12-18T02:53:50;101776.62;;;-10.61;92.37
34034;BME280;63481;52.588;22.472;2022-12-18T02:56:07;101771.53;;;-10.64;92.43
34034;BME280;63481;52.588;22.472;2022-12-18T02:56:51;101773.25;;;-10.64;92.47
34034;BME280;63481;52.588;22.472;2022-12-18T02:57:52;101777.85;;;-10.59;92.48
34034;BME280;63481;52.588;22.472;2022-12-18T02:59:00;101778.14;;;-10.52;92.52
34034;BME280;63481;52.588;22.472;2022-12-18T03:00:05;101770.41;;;-10.52;92.53
34034;BME280;63481;52.588;22.472;2022-12-18T03:05:15;101775.56;;;-10.52;92.53
34034;BME280;63481;52.588;22.472;2022-12-18T03:06:18;101778.59;;;-10.54;92.54
34034;BME280;63481;52.588;22.472;2022-12-18T03:07:09;101782.45;;;-10.54;92.55
34034;BME280;63481;52.588;22.472;2022-12-18T03:08:03;101785.44;;;-10.52;92.55
34034;BME280;63481;52.588;22.472;2022-12-18T03:09:09;101785.82;;;-10.51;92.57
34034;BME280;63481;52.588;22.472;2022-12-18T03:09:52;101783.30;;;-10.52;92.58
34034;BME280;63481;52.588;22.472;2022-12-18T03:10:54;101798.34;;;-10.53;92.58
34034;BME280;63481;52.588;22.472;2022-12-18T03:11:43;101797.33;;;-10.46;92.61
34034;BME280;63481;52.588;22.472;2022-12-18T03:13:08;101796.11;;;-10.49;92.62
34034;BME280;63481;52.588;22.472;2022-12-18T03:13:58;101801.20;;;-10.46;92.62
34034;BME280;63481;52.588;22.472;2022-12-18T03:14:55;101805.13;;;-10.49;92.64
34034;BME280;63481;52.588;22.472;2022-12-18T03:15:45;101799.81;;;-10.43;92.68
34034;BME280;63481;52.588;22.472;2022-12-18T03:16:38;101805.82;;;-10.43;92.68
34034;BME280;63481;52.588;22.472;2022-12-18T03:17:32;101807.23;;;-10.47;92.68
34034;BME280;63481;52.588;22.472;2022-12-18T03:18:27;101812.81;;;-10.48;92.68
34034;BME280;63481;52.588;22.472;2022-12-18T03:19:20;101805.45;;;-10.45;92.69
34034;BME280;63481;52.588;22.472;2022-12-18T03:20:14;101809.38;;;-10.48;92.72
34034;BME280;63481;52.588;22.472;2022-12-18T03:21:07;101811.53;;;-10.48;92.74
34034;BME280;63481;52.588;22.472;2022-12-18T03:22:01;101805.89;;;-10.46;92.74
34034;BME280;63481;52.588;22.472;2022-12-18T03:22:58;101812.31;;;-10.44;92.77
34034;BME280;63481;52.588;22.472;2022-12-18T03:23:49;101810.98;;;-10.43;92.79
34034;BME280;63481;52.588;22.472;2022-12-18T03:24:44;101806.72;;;-10.44;92.78
34034;BME280;63481;52.588;22.472;2022-12-18T03:25:37;101809.30;;;-10.44;92.79
34034;BME280;63481;52.588;22.472;2022-12-18T03:26:28;101807.59;;;-10.45;92.79
34034;BME280;63481;52.588;22.472;2022-12-18T03:27:23;101805.33;;;-10.41;92.82
34034;BME280;63481;52.588;22.472;2022-12-18T03:28:16;101809.62;;;-10.40;92.82
34034;BME280;63481;52.588;22.472;2022-12-18T03:29:19;101813.97;;;-10.42;92.81
34034;BME280;63481;52.588;22.472;2022-12-18T03:30:07;101816.62;;;-10.45;92.82
34034;BME280;63481;52.588;22.472;2022-12-18T03:30:59;101823.86;;;-10.43;92.82
34034;BME280;63481;52.588;22.472;2022-12-18T03:32:01;101818.76;;;-10.44;92.86
34034;BME280;63481;52.588;22.472;2022-12-18T03:32:58;101831.52;;;-10.38;92.86
34034;BME280;63481;52.588;22.472;2022-12-18T03:33:54;101837.54;;;-10.39;92.89
34034;BME280;63481;52.588;22.472;2022-12-18T03:34:49;101840.60;;;-10.41;92.93
34034;BME280;63481;52.588;22.472;2022-12-18T03:35:42;101832.45;;;-10.42;92.98
34034;BME280;63481;52.588;22.472;2022-12-18T03:36:33;101831.11;;;-10.41;93.00
34034;BME280;63481;52.588;22.472;2022-12-18T03:37:24;101829.44;;;-10.42;93.04
34034;BME280;63481;52.588;22.472;2022-12-18T03:38:16;101828.08;;;-10.39;93.05
34034;BME280;63481;52.588;22.472;2022-12-18T03:39:08;101827.25;;;-10.41;93.07
34034;BME280;63481;52.588;22.472;2022-12-18T03:40:00;101834.98;;;-10.41;93.11
34034;BME280;63481;52.588;22.472;2022-12-18T03:42:08;101830.11;;;-10.34;93.15
34034;BME280;63481;52.588;22.472;2022-12-18T03:43:26;101833.13;;;-10.34;93.17
34034;BME280;63481;52.588;22.472;2022-12-18T03:44:20;101836.05;;;-10.30;93.20
34034;BME280;63481;52.588;22.472;2022-12-18T03:45:12;101837.79;;;-10.32;93.21
34034;BME280;63481;52.588;22.472;2022-12-18T03:46:09;101832.69;;;-10.34;93.18
34034;BME280;63481;52.588;22.472;2022-12-18T03:47:04;101833.55;;;-10.35;93.19
34034;BME280;63481;52.588;22.472;2022-12-18T03:49:01;101834.39;;;-10.33;93.19
34034;BME280;63481;52.588;22.472;2022-12-18T03:49:58;101834.77;;;-10.30;93.21
34034;BME280;63481;52.588;22.472;2022-12-18T03:52:09;101837.59;;;-10.23;93.22
34034;BME280;63481;52.588;22.472;2022-12-18T03:53:35;101837.66;;;-10.26;93.22
34034;BME280;63481;52.588;22.472;2022-12-18T03:54:26;101834.22;;;-10.26;93.21
34034;BME280;63481;52.588;22.472;2022-12-18T03:55:19;101834.71;;;-10.28;93.23
34034;BME280;63481;52.588;22.472;2022-12-18T03:56:13;101834.34;;;-10.31;93.22
34034;BME280;63481;52.588;22.472;2022-12-18T03:57:12;101840.35;;;-10.31;93.20
34034;BME280;63481;52.588;22.472;2022-12-18T03:58:05;101837.36;;;-10.32;93.21
34034;BME280;63481;52.588;22.472;2022-12-18T03:59:06;101836.92;;;-10.31;93.22
34034;BME280;63481;52.588;22.472;2022-12-18T04:00:10;101846.27;;;-10.27;93.23
34034;BME280;63481;52.588;22.472;2022-12-18T04:01:08;101847.55;;;-10.27;93.24
34034;BME280;63481;52.588;22.472;2022-12-18T04:02:01;101843.61;;;-10.24;93.25
34034;BME280;63481;52.588;22.472;2022-12-18T04:02:55;101851.42;;;-10.27;93.28
34034;BME280;63481;52.588;22.472;2022-12-18T04:03:49;101845.39;;;-10.26;93.29
34034;BME280;63481;52.588;22.472;2022-12-18T04:04:43;101850.06;;;-10.24;93.30
34034;BME280;63481;52.588;22.472;2022-12-18T04:05:36;101850.41;;;-10.20;93.32
34034;BME280;63481;52.588;22.472;2022-12-18T04:06:28;101856.05;;;-10.22;93.33
34034;BME280;63481;52.588;22.472;2022-12-18T04:07:20;101856.87;;;-10.21;93.33
34034;BME280;63481;52.588;22.472;2022-12-18T04:08:12;101861.58;;;-10.19;93.34
34034;BME280;63481;52.588;22.472;2022-12-18T04:09:05;101864.98;;;-10.19;93.37
34034;BME280;63481;52.588;22.472;2022-12-18T04:09:58;101859.88;;;-10.20;93.39
34034;BME280;63481;52.588;22.472;2022-12-18T04:10:53;101862.82;;;-10.18;93.44
34034;BME280;63481;52.588;22.472;2022-12-18T04:11:44;101865.81;;;-10.17;93.46
34034;BME280;63481;52.588;22.472;2022-12-18T04:12:34;101867.49;;;-10.16;93.47
34034;BME280;63481;52.588;22.472;2022-12-18T04:13:32;101866.63;;;-10.15;93.50
34034;BME280;63481;52.588;22.472;2022-12-18T04:14:24;101861.36;;;-10.12;93.51
34034;BME280;63481;52.588;22.472;2022-12-18T04:15:17;101864.05;;;-10.15;93.51
34034;BME280;63481;52.588;22.472;2022-12-18T04:16:08;101867.81;;;-10.12;93.51
34034;BME280;63481;52.588;22.472;2022-12-18T04:17:01;101865.59;;;-10.09;93.51
34034;BME280;63481;52.588;22.472;2022-12-18T04:17:53;101870.92;;;-10.15;93.51
34034;BME280;63481;52.588;22.472;2022-12-18T04:18:46;101873.07;;;-10.15;93.50
34034;BME280;63481;52.588;22.472;2022-12-18T04:19:37;101873.87;;;-10.13;93.50
34034;BME280;63481;52.588;22.472;2022-12-18T04:20:28;101868.17;;;-10.09;93.52
34034;BME280;63481;52.588;22.472;2022-12-18T04:21:18;101875.70;;;-10.16;93.49
34034;BME280;63481;52.588;22.472;2022-12-18T04:22:10;101868.03;;;-10.19;93.50
34034;BME280;63481;52.588;22.472;2022-12-18T04:23:02;101862.41;;;-10.19;93.48
34034;BME280;63481;52.588;22.472;2022-12-18T04:23:53;101870.98;;;-10.17;93.48
34034;BME280;63481;52.588;22.472;2022-12-18T04:24:44;101871.34;;;-10.14;93.50
34034;BME280;63481;52.588;22.472;2022-12-18T04:25:37;101873.48;;;-10.14;93.51
34034;BME280;63481;52.588;22.472;2022-12-18T04:26:34;101876.02;;;-10.12;93.51
34034;BME280;63481;52.588;22.472;2022-12-18T04:27:35;101877.16;;;-10.08;93.52
34034;BME280;63481;52.588;22.472;2022-12-18T04:28:27;101880.02;;;-10.01;93.53
34034;BME280;63481;52.588;22.472;2022-12-18T04:29:17;101879.73;;;-10.08;93.52
34034;BME280;63481;52.588;22.472;2022-12-18T04:30:08;101884.82;;;-10.05;93.51
34034;BME280;63481;52.588;22.472;2022-12-18T04:30:59;101888.33;;;-10.07;93.51
34034;BME280;63481;52.588;22.472;2022-12-18T04:31:49;101883.95;;;-10.04;93.52
34034;BME280;63481;52.588;22.472;2022-12-18T04:32:40;101886.84;;;-10.00;93.50
34034;BME280;63481;52.588;22.472;2022-12-18T04:33:32;101895.35;;;-9.95;93.49
34034;BME280;63481;52.588;22.472;2022-12-18T04:34:23;101896.54;;;-9.92;93.49
34034;BME280;63481;52.588;22.472;2022-12-18T04:35:15;101890.19;;;-9.95;93.47
34034;BME280;63481;52.588;22.472;2022-12-18T04:36:06;101900.41;;;-9.92;93.46
34034;BME280;63481;52.588;22.472;2022-12-18T04:36:57;101900.52;;;-9.95;93.43
34034;BME280;63481;52.588;22.472;2022-12-18T04:37:48;101906.12;;;-9.97;93.42
34034;BME280;63481;52.588;22.472;2022-12-18T04:38:38;101906.55;;;-9.96;93.41
34034;BME280;63481;52.588;22.472;2022-12-18T04:39:31;101908.16;;;-9.92;93.39
34034;BME280;63481;52.588;22.472;2022-12-18T04:40:26;101911.75;;;-9.97;93.40
34034;BME280;63481;52.588;22.472;2022-12-18T04:41:17;101907.34;;;-9.94;93.38
34034;BME280;63481;52.588;22.472;2022-12-18T04:42:09;101913.84;;;-9.95;93.36
34034;BME280;63481;52.588;22.472;2022-12-18T04:42:59;101913.98;;;-10.01;93.34
34034;BME280;63481;52.588;22.472;2022-12-18T04:43:52;101915.69;;;-10.00;93.34
34034;BME280;63481;52.588;22.472;2022-12-18T04:44:43;101912.70;;;-10.01;93.32
34034;BME280;63481;52.588;22.472;2022-12-18T04:45:33;101910.53;;;-10.00;93.31
34034;BME280;63481;52.588;22.472;2022-12-18T04:46:25;101913.12;;;-10.02;93.31
34034;BME280;63481;52.588;22.472;2022-12-18T04:47:15;101916.68;;;-10.06;93.29
34034;BME280;63481;52.588;22.472;2022-12-18T04:48:06;101923.52;;;-10.05;93.28
34034;BME280;63481;52.588;22.472;2022-12-18T04:48:57;101918.36;;;-10.05;93.29
34034;BME280;63481;52.588;22.472;2022-12-18T04:49:47;101917.06;;;-10.05;93.27